createdAt,value
2018-07-17T00:00:48.894Z,4.40
2018-07-17T00:03:17.355Z,3.97
2018-07-17T00:05:45.780Z,4.00
2018-07-17T00:08:14.258Z,4.17
2018-07-17T00:10:42.707Z,4.23
2018-07-17T00:13:11.202Z,4.67
2018-07-17T00:15:39.706Z,4.27
2018-07-17T00:18:07.893Z,4.10
2018-07-17T00:20:36.351Z,4.07
2018-07-17T00:23:04.820Z,4.47
2018-07-17T00:25:33.335Z,4.20
2018-07-17T00:28:01.494Z,4.70
2018-07-17T00:30:30.205Z,4.00
2018-07-17T00:32:58.902Z,4.40
2018-07-17T00:35:27.363Z,4.03
2018-07-17T00:37:55.853Z,4.30
2018-07-17T00:40:24.350Z,4.43
2018-07-17T00:42:52.814Z,3.87
2018-07-17T00:45:20.944Z,4.50
2018-07-17T00:47:49.439Z,4.13
2018-07-17T00:50:17.931Z,3.70
2018-07-17T00:52:46.397Z,3.80
2018-07-17T00:55:14.879Z,4.53
2018-07-17T00:57:43.711Z,4.47
2018-07-17T01:00:11.847Z,4.63
2018-07-17T01:02:45.667Z,4.20
2018-07-17T01:05:19.424Z,3.90
2018-07-17T01:07:53.174Z,4.10
2018-07-17T01:10:26.967Z,5.10
2018-07-17T01:12:54.643Z,4.70
2018-07-17T01:15:29.349Z,4.70
2018-07-17T01:17:57.834Z,4.67
2018-07-17T01:20:26.315Z,4.70
2018-07-17T01:22:54.799Z,5.20
2018-07-17T01:25:23.239Z,4.30
2018-07-17T01:27:51.387Z,4.73
2018-07-17T01:30:19.853Z,5.13
2018-07-17T01:32:48.350Z,5.40
2018-07-17T01:35:16.833Z,5.33
2018-07-17T01:37:45.370Z,4.60
2018-07-17T01:40:13.863Z,4.70
2018-07-17T01:42:42.326Z,5.23
2018-07-17T01:45:11.030Z,5.07
2018-07-17T01:47:39.484Z,4.37
2018-07-17T01:50:08.013Z,5.37
2018-07-17T01:52:36.459Z,4.53
2018-07-17T01:55:04.983Z,4.60
2018-07-17T01:57:33.444Z,4.93
2018-07-17T02:00:01.950Z,5.40
2018-07-17T02:02:30.421Z,4.80
2018-07-17T02:04:59.006Z,6.03
2018-07-17T02:07:27.370Z,5.83
2018-07-17T02:09:57.846Z,5.83
2018-07-17T02:12:26.298Z,5.47
2018-07-17T02:14:54.713Z,5.33
2018-07-17T02:17:22.839Z,4.73
2018-07-17T02:19:51.382Z,5.70
2018-07-17T02:22:19.842Z,4.90
2018-07-17T02:24:48.334Z,5.27
2018-07-17T02:27:16.457Z,5.40
2018-07-17T02:29:44.998Z,5.50
2018-07-17T02:32:13.125Z,5.23
2018-07-17T02:34:41.619Z,5.60
2018-07-17T02:37:10.091Z,5.40
2018-07-17T02:39:38.646Z,6.00
2018-07-17T02:42:07.264Z,5.03
2018-07-17T02:44:35.730Z,5.63
2018-07-17T02:47:04.593Z,5.80
2018-07-17T02:49:33.471Z,6.23
2018-07-17T02:52:01.986Z,5.60
2018-07-17T02:54:30.455Z,5.70
2018-07-17T02:56:59.209Z,6.77
2018-07-17T02:59:27.734Z,6.50
2018-07-17T03:01:56.185Z,6.43
2018-07-17T03:04:24.317Z,5.80
2018-07-17T03:06:52.773Z,5.70
2018-07-17T03:09:21.278Z,5.50
2018-07-17T03:11:49.751Z,6.30
2018-07-17T03:14:18.200Z,5.70
2018-07-17T03:16:46.913Z,6.57
2018-07-17T03:19:15.400Z,6.60
2018-07-17T03:21:43.879Z,5.70
2018-07-17T03:24:12.341Z,5.50
2018-07-17T03:26:40.845Z,6.80
2018-07-17T03:29:09.390Z,5.87
2018-07-17T03:31:37.869Z,6.40
2018-07-17T03:34:06.337Z,5.97
2018-07-17T03:36:35.224Z,6.97
2018-07-17T03:39:03.386Z,6.30
2018-07-17T03:41:31.850Z,6.70
2018-07-17T03:44:00.310Z,6.20
2018-07-17T03:46:28.766Z,6.40
2018-07-17T03:48:57.230Z,6.33
2018-07-17T03:51:25.751Z,6.20
2018-07-17T03:53:54.258Z,6.47
2018-07-17T03:56:22.703Z,6.20
2018-07-17T03:58:51.165Z,6.40
2018-07-17T04:01:19.337Z,6.87
2018-07-17T04:03:47.839Z,6.27
2018-07-17T04:06:16.297Z,6.10
2018-07-17T04:08:44.792Z,6.80
2018-07-17T04:11:13.241Z,6.70
2018-07-17T04:13:41.706Z,5.50
2018-07-17T04:16:10.179Z,6.10
2018-07-17T04:18:38.617Z,6.50
2018-07-17T04:21:06.755Z,6.50
2018-07-17T04:23:35.229Z,6.57
2018-07-17T04:26:03.693Z,7.00
2018-07-17T04:28:32.391Z,6.23
2018-07-17T04:31:00.857Z,6.67
2018-07-17T04:33:29.326Z,7.00
2018-07-17T04:35:57.785Z,7.40
2018-07-17T04:38:26.274Z,6.83
2018-07-17T04:40:54.959Z,6.10
2018-07-17T04:43:23.406Z,6.90
2018-07-17T04:45:51.878Z,6.80
2018-07-17T04:48:20.378Z,7.37
2018-07-17T04:50:48.880Z,6.87
2018-07-17T04:53:17.379Z,6.93
2018-07-17T04:55:45.835Z,6.77
2018-07-17T04:58:14.293Z,6.57
2018-07-17T05:00:42.735Z,6.70
2018-07-17T05:03:11.206Z,7.27
2018-07-17T05:05:39.687Z,6.87
2018-07-17T05:08:08.300Z,7.00
2018-07-17T05:10:36.786Z,6.90
2018-07-17T05:13:05.353Z,6.67
2018-07-17T05:15:34.226Z,6.20
2018-07-17T05:18:02.475Z,7.37
2018-07-17T05:20:30.961Z,7.47
2018-07-17T05:22:59.528Z,6.67
2018-07-17T05:25:28.038Z,7.33
2018-07-17T05:27:56.532Z,7.50
2018-07-17T05:30:24.675Z,6.73
2018-07-17T05:32:53.112Z,6.40
2018-07-17T05:35:21.639Z,8.13
2018-07-17T05:37:50.061Z,6.77
2018-07-17T05:40:18.765Z,6.67
2018-07-17T05:42:48.098Z,6.97
2018-07-17T05:45:16.613Z,6.63
2018-07-17T05:47:44.773Z,7.10
2018-07-17T05:50:13.906Z,6.87
2018-07-17T05:52:42.870Z,6.70
2018-07-17T05:55:11.354Z,6.83
2018-07-17T05:57:39.826Z,7.13
2018-07-17T06:00:08.851Z,6.80
2018-07-17T06:02:37.357Z,6.90
2018-07-17T06:05:06.218Z,6.60
2018-07-17T06:07:34.434Z,7.27
2018-07-17T06:10:03.174Z,7.23
2018-07-17T06:12:31.743Z,7.60
2018-07-17T06:15:00.367Z,6.43
2018-07-17T06:17:28.826Z,6.47
2018-07-17T06:19:57.297Z,6.97
2018-07-17T06:22:25.798Z,7.00
2018-07-17T06:24:53.932Z,7.20
2018-07-17T06:27:24.649Z,7.50
2018-07-17T06:29:53.342Z,7.10
2018-07-17T06:32:22.063Z,7.17
2018-07-17T06:34:50.548Z,6.43
2018-07-17T06:37:19.018Z,6.80
2018-07-17T06:39:47.716Z,7.07
2018-07-17T06:42:16.217Z,6.90
2018-07-17T06:44:44.419Z,5.77
2018-07-17T06:47:13.328Z,6.70
2018-07-17T06:49:41.785Z,6.60
2018-07-17T06:52:10.442Z,6.20
2018-07-17T06:54:38.914Z,6.50
2018-07-17T06:57:07.408Z,6.83
2018-07-17T06:59:35.842Z,7.03
2018-07-17T07:02:04.322Z,6.87
2018-07-17T07:04:32.793Z,6.40
2018-07-17T07:07:01.512Z,7.20
2018-07-17T07:09:30.221Z,6.40
2018-07-17T07:11:58.706Z,5.40
2018-07-17T07:14:27.160Z,5.83
2018-07-17T07:16:55.890Z,6.40
2018-07-17T07:19:24.037Z,6.27
2018-07-17T07:21:52.530Z,6.07
2018-07-17T07:24:20.971Z,5.70
2018-07-17T07:26:49.419Z,6.30
2018-07-17T07:29:17.909Z,6.00
2018-07-17T07:31:46.359Z,6.23
2018-07-17T07:34:14.830Z,5.57
2018-07-17T07:36:43.262Z,5.90
2018-07-17T07:39:11.863Z,5.03
2018-07-17T07:41:40.551Z,6.47
2018-07-17T07:44:09.022Z,6.47
2018-07-17T07:46:37.490Z,5.60
2018-07-17T07:49:06.044Z,6.10
2018-07-17T07:51:34.490Z,5.77
2018-07-17T07:54:02.980Z,4.70
2018-07-17T07:56:31.430Z,5.80
2018-07-17T07:58:59.894Z,5.77
2018-07-17T08:01:28.578Z,5.70
2018-07-17T08:03:57.319Z,6.00
2018-07-17T08:06:25.809Z,6.13
2018-07-17T08:08:54.262Z,5.30
2018-07-17T08:11:22.739Z,5.63
2018-07-17T08:13:51.183Z,5.43
2018-07-17T08:16:19.932Z,4.87
2018-07-17T08:18:48.622Z,5.40
2018-07-17T08:21:17.158Z,5.67
2018-07-17T08:23:45.862Z,4.80
2018-07-17T08:26:14.322Z,5.00
2018-07-17T08:28:42.799Z,5.00
2018-07-17T08:31:11.266Z,5.70
2018-07-17T08:33:39.714Z,5.17
2018-07-17T08:36:08.533Z,4.87
2018-07-17T08:38:36.990Z,4.63
2018-07-17T08:41:05.493Z,4.60
2018-07-17T08:43:33.987Z,4.17
2018-07-17T08:46:02.162Z,4.13
2018-07-17T08:48:30.614Z,5.23
2018-07-17T08:50:59.102Z,4.87
2018-07-17T08:53:27.577Z,5.27
2018-07-17T08:55:56.050Z,5.20
2018-07-17T08:58:24.518Z,5.20
2018-07-17T09:00:53.003Z,5.10
2018-07-17T09:03:21.526Z,5.60
2018-07-17T09:05:50.059Z,5.00
2018-07-17T09:08:18.786Z,4.47
2018-07-17T09:10:49.673Z,5.60
2018-07-17T09:13:18.137Z,5.30
2018-07-17T09:15:46.818Z,4.60
2018-07-17T09:18:15.641Z,4.80
2018-07-17T09:20:44.759Z,5.23
2018-07-17T09:23:13.239Z,4.40
2018-07-17T09:25:41.825Z,5.53
2018-07-17T09:28:10.411Z,5.30
2018-07-17T09:30:44.286Z,5.30
2018-07-17T09:33:12.738Z,5.03
2018-07-17T09:35:41.228Z,4.90
2018-07-17T09:38:09.589Z,5.37
2018-07-17T09:40:38.416Z,5.53
2018-07-17T09:43:07.298Z,5.57
2018-07-17T09:45:35.449Z,5.07
2018-07-17T09:48:03.955Z,4.77
2018-07-17T09:50:32.185Z,4.70
2018-07-17T09:53:00.821Z,4.77
2018-07-17T09:55:29.305Z,5.30
2018-07-17T09:58:09.040Z,5.33
2018-07-17T10:00:42.974Z,4.00
2018-07-17T10:05:51.431Z,5.30
2018-07-17T10:08:20.001Z,4.87
2018-07-17T10:10:48.473Z,4.23
2018-07-17T10:13:16.958Z,4.50
2018-07-17T10:15:45.498Z,4.07
2018-07-17T10:18:13.981Z,3.70
2018-07-17T10:20:42.457Z,4.20
2018-07-17T10:23:12.262Z,3.87
2018-07-17T10:25:40.726Z,3.80
2018-07-17T10:28:09.191Z,4.00
2018-07-17T10:30:37.643Z,3.80
2018-07-17T10:33:06.896Z,3.90
2018-07-17T10:35:39.668Z,3.87
2018-07-17T10:38:20.990Z,3.80
2018-07-17T10:40:49.574Z,3.90
2018-07-17T10:43:18.019Z,3.93
2018-07-17T10:45:46.876Z,3.10
2018-07-17T10:48:16.513Z,3.50
2018-07-17T10:50:47.059Z,3.30
2018-07-17T10:53:15.700Z,3.67
2018-07-17T10:55:44.187Z,3.57
2018-07-17T10:58:12.704Z,3.50
2018-07-17T11:00:41.298Z,3.50
2018-07-17T11:03:10.034Z,3.80
2018-07-17T11:05:38.182Z,3.87
2018-07-17T11:08:06.753Z,3.50
2018-07-17T11:10:35.835Z,3.73
2018-07-17T11:13:04.345Z,3.13
2018-07-17T11:15:33.453Z,3.70
2018-07-17T11:18:01.926Z,3.63
2018-07-17T11:20:30.374Z,3.20
2018-07-17T11:22:59.206Z,3.90
2018-07-17T11:25:27.753Z,3.57
2018-07-17T11:27:56.240Z,4.37
2018-07-17T11:30:24.802Z,4.37
2018-07-17T11:32:53.706Z,4.20
2018-07-17T11:35:22.306Z,3.77
2018-07-17T11:37:51.222Z,4.43
2018-07-17T11:40:19.764Z,4.37
2018-07-17T11:42:48.380Z,4.23
2018-07-17T11:45:17.019Z,4.13
2018-07-17T11:47:45.622Z,3.83
2018-07-17T11:50:14.375Z,4.07
2018-07-17T11:52:42.960Z,3.60
2018-07-17T11:55:11.522Z,4.37
2018-07-17T11:57:42.494Z,4.20
2018-07-17T12:02:56.310Z,3.70
2018-07-17T12:05:24.824Z,3.77
2018-07-17T12:07:55.148Z,3.57
2018-07-17T12:10:24.678Z,3.93
2018-07-17T12:12:53.222Z,4.30
2018-07-17T12:15:21.930Z,4.53
2018-07-17T12:17:50.380Z,4.03
2018-07-17T12:20:18.993Z,4.43
2018-07-17T12:22:47.403Z,3.80
2018-07-17T12:25:15.972Z,4.13
2018-07-17T12:27:44.430Z,3.40
2018-07-17T12:30:12.939Z,4.13
2018-07-17T12:32:41.413Z,4.17
2018-07-17T12:35:09.887Z,4.63
2018-07-17T12:37:38.433Z,4.00
2018-07-17T12:40:06.966Z,5.13
2018-07-17T12:42:36.207Z,4.40
2018-07-17T12:45:05.094Z,4.50
2018-07-17T12:47:33.619Z,4.50
2018-07-17T12:50:01.945Z,4.83
2018-07-17T12:52:30.427Z,4.30
2018-07-17T12:54:58.943Z,4.33
2018-07-17T12:57:27.415Z,3.80
2018-07-17T12:59:56.050Z,4.27
2018-07-17T13:02:24.525Z,4.40
2018-07-17T13:04:53.022Z,3.80
2018-07-17T13:07:21.526Z,4.20
2018-07-17T13:09:50.007Z,3.57
2018-07-17T13:12:18.482Z,4.10
2018-07-17T13:14:47.086Z,3.43
2018-07-17T13:17:15.496Z,4.00
2018-07-17T13:19:43.697Z,3.50
2018-07-17T13:22:11.878Z,3.60
2018-07-17T13:24:40.353Z,4.33
2018-07-17T13:27:08.628Z,3.90
2018-07-17T13:29:37.146Z,4.23
2018-07-17T13:32:05.578Z,3.77
2018-07-17T13:34:34.051Z,3.90
2018-07-17T13:37:02.534Z,3.70
2018-07-17T13:39:31.007Z,4.20
2018-07-17T13:41:59.473Z,4.70
2018-07-17T13:44:27.968Z,4.30
2018-07-17T13:46:56.495Z,4.10
2018-07-17T13:49:25.132Z,3.77
2018-07-17T13:51:53.663Z,4.20
2018-07-17T13:54:22.118Z,4.10
2018-07-17T13:56:50.619Z,4.53
2018-07-17T13:59:19.786Z,4.40
2018-07-17T14:01:48.261Z,4.43
2018-07-17T14:04:16.692Z,3.73
2018-07-17T14:06:45.393Z,4.30
2018-07-17T14:09:13.985Z,4.30
2018-07-17T14:11:42.676Z,4.27
2018-07-17T14:14:11.169Z,3.73
2018-07-17T14:16:39.688Z,3.80
2018-07-17T14:19:08.214Z,3.07
2018-07-17T14:21:36.703Z,3.30
2018-07-17T14:24:05.429Z,3.73
2018-07-17T14:26:33.921Z,3.00
2018-07-17T14:29:02.406Z,3.30
2018-07-17T14:31:30.890Z,2.80
2018-07-17T14:33:59.399Z,3.07
2018-07-17T14:36:28.592Z,3.53
2018-07-17T14:38:57.161Z,3.13
2018-07-17T14:41:25.693Z,3.17
2018-07-17T14:43:54.185Z,3.23
2018-07-17T14:46:22.673Z,3.30
2018-07-17T14:48:51.398Z,3.10
2018-07-17T14:51:19.561Z,3.30
2018-07-17T14:53:47.882Z,3.30
2018-07-17T14:56:16.353Z,3.67
2018-07-17T14:58:44.838Z,3.90
2018-07-17T15:01:13.347Z,3.47
2018-07-17T15:03:42.337Z,3.70
2018-07-17T15:06:12.349Z,3.57
2018-07-17T15:08:40.847Z,3.60
2018-07-17T15:11:09.350Z,3.70
2018-07-17T15:13:38.290Z,3.77
2018-07-17T15:16:06.782Z,3.83
2018-07-17T15:18:35.570Z,3.93
2018-07-17T15:21:04.053Z,4.03
2018-07-17T15:23:32.547Z,4.10
2018-07-17T15:26:01.074Z,4.00
2018-07-17T15:28:29.277Z,3.80
2018-07-17T15:30:57.742Z,3.87
2018-07-17T15:33:25.915Z,3.70
2018-07-17T15:35:54.070Z,4.33
2018-07-17T15:38:22.605Z,3.83
2018-07-17T15:40:51.714Z,4.20
2018-07-17T15:43:20.223Z,3.93
2018-07-17T15:45:48.791Z,3.90
2018-07-17T15:48:17.224Z,3.80
2018-07-17T15:51:17.330Z,4.50
2018-07-17T15:53:45.832Z,4.47
2018-07-17T15:56:14.011Z,4.50
2018-07-17T15:58:42.478Z,4.73
2018-07-17T16:01:11.011Z,4.50
2018-07-17T16:03:39.793Z,4.70
2018-07-17T16:06:14.127Z,4.30
2018-07-17T16:08:42.628Z,4.83
2018-07-17T16:11:11.341Z,4.13
2018-07-17T16:13:39.910Z,4.43
2018-07-17T16:16:08.274Z,4.00
2018-07-17T16:18:36.809Z,4.60
2018-07-17T16:21:05.463Z,3.70
2018-07-17T16:23:33.990Z,3.47
2018-07-17T16:26:02.598Z,3.70
2018-07-17T16:28:31.118Z,4.00
2018-07-17T16:30:59.590Z,4.43
2018-07-17T16:33:28.065Z,4.50
2018-07-17T16:35:56.547Z,3.90
2018-07-17T16:38:24.998Z,3.40
2018-07-17T16:40:53.530Z,3.47
2018-07-17T16:43:22.085Z,3.70
2018-07-17T16:45:50.598Z,3.67
2018-07-17T16:48:19.130Z,3.97
2018-07-17T16:50:48.294Z,4.03
2018-07-17T16:53:16.474Z,4.00
2018-07-17T16:55:44.969Z,4.37
2018-07-17T16:58:13.613Z,3.90
2018-07-17T17:00:42.210Z,3.97
2018-07-17T17:03:10.433Z,4.60
2018-07-17T17:05:38.893Z,4.00
2018-07-17T17:08:07.632Z,4.10
2018-07-17T17:10:36.210Z,4.20
2018-07-17T17:13:05.327Z,4.10
2018-07-17T17:15:34.114Z,4.67
2018-07-17T17:18:02.586Z,5.07
2018-07-17T17:20:31.070Z,3.80
2018-07-17T17:22:59.528Z,4.73
2018-07-17T17:25:28.062Z,4.10
2018-07-17T17:27:56.542Z,4.30
2018-07-17T17:30:24.920Z,4.80
2018-07-17T17:32:53.163Z,3.67
2018-07-17T17:35:21.569Z,4.60
2018-07-17T17:37:50.043Z,4.57
2018-07-17T17:40:18.550Z,4.03
2018-07-17T17:42:46.693Z,5.03
2018-07-17T17:45:15.239Z,4.83
2018-07-17T17:47:43.789Z,4.67
2018-07-17T17:50:12.317Z,5.10
2018-07-17T17:52:40.784Z,4.30
2018-07-17T17:55:09.251Z,4.70
2018-07-17T17:57:37.812Z,5.13
2018-07-17T18:00:06.627Z,5.20
2018-07-17T18:02:35.099Z,4.97
2018-07-17T18:05:03.307Z,5.23
2018-07-17T18:07:31.795Z,5.43
2018-07-17T18:10:00.325Z,5.70
2018-07-17T18:12:28.846Z,4.53
2018-07-17T18:14:57.302Z,5.03
2018-07-17T18:17:25.798Z,4.53
2018-07-17T18:19:54.470Z,5.00
2018-07-17T18:22:22.691Z,5.77
2018-07-17T18:24:51.126Z,4.83
2018-07-17T18:27:19.598Z,5.20
2018-07-17T18:29:47.853Z,4.90
2018-07-17T18:32:16.329Z,5.23
2018-07-17T18:34:44.812Z,5.27
2018-07-17T18:37:13.298Z,5.07
2018-07-17T18:39:41.818Z,4.50
2018-07-17T18:42:10.384Z,4.30
2018-07-17T18:44:38.921Z,4.23
2018-07-17T18:47:07.553Z,4.33
2018-07-17T18:49:35.997Z,5.40
2018-07-17T18:52:04.501Z,4.37
2018-07-17T18:54:32.998Z,4.60
2018-07-17T18:57:01.525Z,4.90
2018-07-17T18:59:29.970Z,4.67
2018-07-17T19:01:58.514Z,4.93
2018-07-17T19:04:26.999Z,4.47
2018-07-17T19:06:55.516Z,5.03
2018-07-17T19:09:23.746Z,5.30
2018-07-17T19:11:52.196Z,5.40
2018-07-17T19:14:20.917Z,4.80
2018-07-17T19:16:49.420Z,4.00
2018-07-17T19:19:17.899Z,4.77
2018-07-17T19:21:46.369Z,4.87
2018-07-17T19:24:14.817Z,5.07
2018-07-17T19:26:43.524Z,4.77
2018-07-17T19:29:12.264Z,4.57
2018-07-17T19:31:40.760Z,4.60
2018-07-17T19:34:18.847Z,4.63
2018-07-17T19:36:48.630Z,4.70
2018-07-17T19:39:17.174Z,4.83
2018-07-17T19:41:45.700Z,4.23
2018-07-17T19:44:14.178Z,4.47
2018-07-17T19:46:42.635Z,4.07
2018-07-17T19:49:11.136Z,4.17
2018-07-17T19:51:39.590Z,4.07
2018-07-17T19:54:08.078Z,4.47
2018-07-17T19:56:36.553Z,4.17
2018-07-17T19:59:06.373Z,4.03
2018-07-17T20:01:34.934Z,3.60
2018-07-17T20:04:03.095Z,4.63
2018-07-17T20:06:31.310Z,3.97
2018-07-17T20:08:59.888Z,4.77
2018-07-17T20:11:28.388Z,4.33
2018-07-17T20:13:56.902Z,4.60
2018-07-17T20:16:25.494Z,4.30
2018-07-17T20:18:55.715Z,4.33
2018-07-17T20:21:25.221Z,3.70
2018-07-17T20:23:53.758Z,4.27
2018-07-17T20:26:22.318Z,4.23
2018-07-17T20:28:51.446Z,4.80
2018-07-17T20:31:19.951Z,4.37
2018-07-17T20:33:54.931Z,4.47
2018-07-17T20:36:24.059Z,3.70
2018-07-17T20:38:56.060Z,4.30
2018-07-17T20:41:25.005Z,4.07
2018-07-17T20:43:54.247Z,4.13
2018-07-17T20:46:22.798Z,4.67
2018-07-17T20:48:51.863Z,5.57
2018-07-17T20:51:20.037Z,5.23
2018-07-17T20:53:49.254Z,4.73
2018-07-17T20:56:17.794Z,4.33
2018-07-17T20:58:47.272Z,4.53
2018-07-17T21:01:16.642Z,4.30
2018-07-17T21:03:45.135Z,4.10
2018-07-17T21:06:13.632Z,4.53
2018-07-17T21:08:42.107Z,4.67
2018-07-17T21:11:10.599Z,4.50
2018-07-17T21:13:39.336Z,6.57
2018-07-17T21:16:07.851Z,4.73
2018-07-17T21:18:36.526Z,4.97
2018-07-17T21:21:05.254Z,3.53
2018-07-17T21:23:33.921Z,4.47
2018-07-17T21:26:02.484Z,4.23
2018-07-17T21:28:31.465Z,4.50
2018-07-17T21:31:00.867Z,4.80
2018-07-17T21:33:29.790Z,4.40
2018-07-17T21:35:58.333Z,4.50
2018-07-17T21:38:26.807Z,4.17
2018-07-17T21:40:55.321Z,4.20
2018-07-17T21:43:23.473Z,4.67
2018-07-17T21:45:51.917Z,4.20
2018-07-17T21:48:20.574Z,4.40
2018-07-17T21:50:49.067Z,4.10
2018-07-17T21:53:17.515Z,4.30
2018-07-17T21:55:45.852Z,5.37
2018-07-17T21:58:15.135Z,5.17
2018-07-17T22:00:43.651Z,4.83
2018-07-17T22:03:13.746Z,4.47
2018-07-17T22:05:42.699Z,4.77
2018-07-17T22:08:11.284Z,4.50
2018-07-17T22:10:39.531Z,4.50
2018-07-17T22:13:08.044Z,4.57
2018-07-17T22:15:36.484Z,4.03
2018-07-17T22:18:05.207Z,4.50
2018-07-17T22:20:33.386Z,4.30
2018-07-17T22:23:01.537Z,4.30
2018-07-17T22:25:30.002Z,4.80
2018-07-17T22:27:58.528Z,4.80
2018-07-17T22:30:26.962Z,4.17
2018-07-17T22:32:55.397Z,4.80
2018-07-17T22:35:23.894Z,5.23
2018-07-17T22:37:52.358Z,5.10
2018-07-17T22:40:20.831Z,4.53
2018-07-17T22:42:48.948Z,4.47
2018-07-17T22:45:17.435Z,4.70
2018-07-17T22:47:45.870Z,4.40
2018-07-17T22:50:14.052Z,4.63
2018-07-17T22:52:42.535Z,4.53
2018-07-17T22:55:11.048Z,4.80
2018-07-17T22:57:39.738Z,4.33
2018-07-17T23:00:08.357Z,4.30
2018-07-17T23:02:37.050Z,4.70
2018-07-17T23:05:05.591Z,4.60
2018-07-17T23:07:34.087Z,4.80
2018-07-17T23:10:02.587Z,5.40
2018-07-17T23:12:31.051Z,4.43
2018-07-17T23:14:59.534Z,5.40
2018-07-17T23:17:28.043Z,4.47
2018-07-17T23:19:56.525Z,4.90
2018-07-17T23:22:34.152Z,4.70
2018-07-17T23:25:02.624Z,5.00
2018-07-17T23:27:31.082Z,5.97
2018-07-17T23:29:59.583Z,6.00
2018-07-17T23:32:27.713Z,5.00
2018-07-17T23:34:56.197Z,5.90
2018-07-17T23:37:24.687Z,5.87
2018-07-17T23:39:53.147Z,4.83
2018-07-17T23:42:21.644Z,5.70
2018-07-17T23:44:50.088Z,5.00
2018-07-17T23:47:18.570Z,5.07
2018-07-17T23:49:47.014Z,5.50
2018-07-17T23:52:15.482Z,4.77
2018-07-17T23:54:43.969Z,5.53
2018-07-17T23:57:12.450Z,5.20
2018-07-17T23:59:41.149Z,6.13
